x

Bw Pioneer Buoy - Walker Ridge 249 (42360) Wave Buoy

5:00am - Fri 22nd Aug 2014 All times are UTC.

  • Sig Wave height 1.6ft
  • Peak Period 6s
  • Wind
    13mph, 18mph gusts
  • Sea Temp 88°f
  • Air Temp 86°f
  • Sea Pressure 1019.6mb

More Historic Weather Station data

Upgrade to MSW Pro to gain access to the past 30 days of data for over 8000 Wavebouys and Weather Stations around the globe.

Join Pro

Comparision Forecast

View Surf forecast
   
Fri 08/22 5:00am 1.6ft 6s 13 18 mph 1019.6mb 88f 86f
4:00am 1.6ft 4s 16 20 mph 1019.8mb 88f 86f
3:00am 1.6ft 4s 16 20 mph 1019.7mb 89f 86f
2:00am 1.6ft 5s 13 18 mph 1019.2mb 89f 86f
1:00am 1.6ft 5s 13 18 mph 1019mb 89f 87f
12:00am 1.6ft 5s 11 13 mph 1018.8mb 89f 87f
Thu 08/21 11:00pm 1.6ft 5s 11 13 mph 1018.8mb 89f 87f
10:00pm 1.6ft 5s 13 16 mph 1018.8mb 89f 87f
9:00pm 1.6ft 5s 11 13 mph 1018.8mb 88f 86f
8:00pm 1.6ft 5s 7 13 mph 1018.8mb 88f 83f
7:00pm 1.6ft 5s 11 16 mph 1019.7mb 88f 87f
6:00pm 1.6ft 5s 11 16 mph 1020mb 88f 86f
5:00pm 1.6ft 5s 9 13 mph 1020.4mb 87f 86f
4:00pm 1.6ft 5s 7 11 mph 1020.9mb 88f 86f
3:00pm 1.6ft 5s 7 9 mph 1020.3mb 88f 86f
2:00pm 1.6ft 5s 7 9 mph 1020mb 88f 85f
1:00pm 2ft 5s 7 11 mph 1019.8mb 88f 85f
12:00pm 2ft 5s 11 13 mph 1019.2mb 88f 85f
11:00am 1.6ft 5s 9 13 mph 1018.5mb 88f 85f
10:00am 1.6ft 5s 9 11 mph 1018.1mb 88f 85f
9:00am 2ft 5s 11 16 mph 1018.1mb 88f 86f
8:00am 1.6ft 5s 13 16 mph 1018.2mb 88f 86f
7:00am 2ft 5s 13 16 mph 1018.5mb 88f 86f
6:00am 1.6ft 5s 13 16 mph 1018.6mb 88f 86f
5:00am 2ft 5s 11 16 mph 1018.8mb 89f 86f
4:00am 2ft 5s 9 11 mph 1019mb 89f 86f
3:00am 2ft 5s 9 11 mph 1019mb 89f 86f
2:00am 2ft 5s 9 13 mph 1018.1mb 89f 86f
1:00am 2.5ft 5s 9 11 mph 1017.5mb 89f 86f
12:00am 2.5ft 5s 11 16 mph 1017.5mb 89f 86f
Wed 08/20 11:00pm 2.5ft 5s 11 16 mph 1017.5mb 89f 87f
10:00pm 2ft 5s 11 16 mph 1017.5mb 89f 87f
9:00pm 2.5ft 5s 16 18 mph 1017.4mb 89f 86f
8:00pm 2.5ft 5s 13 18 mph 1018.1mb 89f 87f
7:00pm 2.5ft 5s 16 20 mph 1018.3mb 88f 87f
6:00pm 2.5ft 5s 16 20 mph 1018.3mb 88f 86f
5:00pm 2.5ft 5s 13 18 mph 1018.5mb 88f 86f
4:00pm 2ft 5s 18 22 mph 1018.3mb 88f 85f
3:00pm 2ft 5s 16 20 mph 1018.5mb 87f 86f
2:00pm 2.5ft 5s 16 20 mph 1017.9mb 87f 86f
1:00pm 2ft 5s 13 18 mph 1017mb 87f 85f
12:00pm 2.5ft 5s 16 18 mph - 87f -
11:00am 2ft 5s 18 20 mph 1016mb 87f 85f
9:00am 2ft 5s 16 20 mph 1015mb 87f 85f
8:00am 2ft 5s 16 20 mph 1015mb 87f 85f
7:00am 2.5ft 5s 16 20 mph 1015.3mb 87f 85f
6:00am 2.5ft 5s 16 20 mph 1015.5mb 87f 85f
5:00am 2.5ft 5s 13 18 mph 1015.8mb 87f 86f
4:00am 2.5ft 5s 16 20 mph 1015.8mb 88f 86f
1:00am 2ft 5s 7 11 mph 1014.8mb 88f 85f
12:00am 2.5ft 4s 13 18 mph 1014.4mb 88f 86f
Tue 08/19 11:00pm 2ft 5s 16 20 mph 1014.2mb 89f 86f
10:00pm 1.6ft 5s 20 25 mph 1013.9mb 89f 86f
9:00pm 2ft 4s 18 20 mph 1014.2mb 89f 86f
8:00pm 2ft 5s 13 20 mph 1014.8mb 88f 87f
7:00pm 1.6ft 5s 16 20 mph 1015.2mb 88f 87f
6:00pm 1.6ft 6s 16 18 mph 1016.4mb 88f 87f
5:00pm 1.6ft 6s 16 20 mph 1016.6mb 88f 87f
4:00pm 1.6ft 4s 16 20 mph 1016.6mb 88f 86f
3:00pm 1.6ft 4s 13 18 mph 1016.4mb 88f 86f
2:00pm 1.6ft 5s 11 16 mph 1016.4mb 88f 85f
1:00pm 1.6ft 4s 13 18 mph 1016.1mb 87f 85f
12:00pm 1.6ft 5s 13 18 mph 1015.6mb 87f 85f
11:00am 1.6ft 5s 11 16 mph 1015.2mb 87f 85f
10:00am 1.6ft 6s 13 18 mph 1014.5mb 88f 85f
9:00am 1.6ft 5s 11 16 mph 1014.5mb 88f 85f
8:00am 1.6ft 4s 11 16 mph 1014.5mb 88f 85f
7:00am 1.6ft 5s 13 18 mph 1014.5mb 88f 86f
6:00am 1.6ft 4s 16 20 mph 1015.2mb 88f 86f
5:00am 1.6ft 4s 13 18 mph 1015.9mb 88f 86f
4:00am 1.6ft 5s 11 16 mph 1016.1mb - 86f
3:00am 1.6ft 5s 9 11 mph 1015.9mb 88f 85f
2:00am 1.6ft 4s 9 13 mph 1015.2mb 88f 86f
1:00am 1.6ft 5s 7 9 mph 1015mb 89f 85f
12:00am 1.6ft 5s 13 18 mph 1015.2mb 89f 84f
Mon 08/18 11:00pm 1.6ft 5s 7 27 mph 1014.9mb 89f 86f
10:00pm 1.6ft 5s  -  7 mph 1015.4mb 89f 88f
9:00pm 1.6ft 4s 7 9 mph 1015.6mb 89f 87f
8:00pm 1.6ft 5s 7 11 mph 1016.1mb 89f 86f
7:00pm 1.6ft 5s 9 13 mph 1016.3mb 89f 86f
6:00pm 1.6ft 5s 11 16 mph 1016.9mb 89f 86f
5:00pm 2ft 5s 11 13 mph 1017.5mb 89f 86f
4:00pm 1.6ft 5s 13 18 mph 1017.7mb 88f 86f
3:00pm 2ft 5s 16 18 mph 1017.7mb 88f 86f
2:00pm 2.5ft 5s 11 13 mph 1017.5mb 88f 86f
1:00pm 2.5ft 5s 16 18 mph 1017.1mb 88f 86f
12:00pm 2.5ft 5s 13 18 mph 1016.6mb 88f 85f
11:00am 2.5ft 5s 13 16 mph 1016mb 88f 85f
10:00am 2.5ft 5s 16 18 mph 1015.9mb 88f 85f
9:00am 2.5ft 5s 18 22 mph 1015.8mb 88f 85f
8:00am 2ft 4s 18 22 mph 1016mb 88f 86f
7:00am 2ft 4s 18 22 mph 1016.6mb 88f 86f